createdAt,value
2022-10-18T00:00:51.168Z,8.70
2022-10-18T00:01:51.139Z,8.50
2022-10-18T00:02:51.094Z,12.80
2022-10-18T00:03:51.086Z,8.50
2022-10-18T00:04:51.078Z,8.90
2022-10-18T00:05:51.090Z,11.50
2022-10-18T00:06:51.084Z,10.30
2022-10-18T00:07:51.062Z,10.40
2022-10-18T00:08:51.048Z,7.70
2022-10-18T00:09:51.018Z,9.30
2022-10-18T00:10:51.018Z,8.00
2022-10-18T00:11:51.029Z,10.50
2022-10-18T00:12:51.003Z,9.20
2022-10-18T00:13:50.960Z,7.20
2022-10-18T00:14:51.037Z,10.10
2022-10-18T00:15:50.991Z,9.60
2022-10-18T00:16:50.934Z,9.00
2022-10-18T00:17:50.952Z,11.00
2022-10-18T00:18:50.922Z,10.40
2022-10-18T00:19:50.896Z,10.40
2022-10-18T00:20:50.925Z,7.00
2022-10-18T00:21:50.932Z,8.80
2022-10-18T00:22:50.876Z,8.80
2022-10-18T00:23:50.896Z,9.90
2022-10-18T00:24:50.859Z,6.90
2022-10-18T00:25:50.831Z,9.60
2022-10-18T00:26:50.841Z,11.10
2022-10-18T00:27:50.795Z,7.20
2022-10-18T00:28:50.950Z,9.90
2022-10-18T00:29:50.849Z,9.90
2022-10-18T00:31:50.816Z,9.30
2022-10-18T00:32:50.759Z,8.30
2022-10-18T00:33:50.737Z,9.20
2022-10-18T00:34:50.750Z,9.00
2022-10-18T00:35:50.720Z,10.20
2022-10-18T00:36:50.736Z,7.60
2022-10-18T00:37:50.785Z,6.30
2022-10-18T00:38:50.687Z,12.60
2022-10-18T00:40:50.692Z,10.80
2022-10-18T00:41:50.674Z,7.10
2022-10-18T00:42:50.642Z,9.90
2022-10-18T00:43:50.655Z,9.00
2022-10-18T00:44:50.624Z,9.90
2022-10-18T00:45:50.618Z,8.40
2022-10-18T00:46:50.661Z,11.00
2022-10-18T00:47:50.584Z,7.20
2022-10-18T00:48:50.600Z,11.80
2022-10-18T00:49:50.593Z,7.40
2022-10-18T00:50:50.544Z,8.00
2022-10-18T00:51:50.566Z,9.00
2022-10-18T00:52:50.512Z,7.20
2022-10-18T00:53:50.512Z,9.00
2022-10-18T00:54:50.513Z,9.60
2022-10-18T00:55:50.473Z,8.60
2022-10-18T00:56:50.507Z,7.40
2022-10-18T00:57:50.507Z,7.70
2022-10-18T00:58:50.445Z,8.20
2022-10-18T00:59:50.468Z,9.60
2022-10-18T01:00:50.423Z,8.90
2022-10-18T01:01:50.573Z,8.00
2022-10-18T01:02:50.409Z,8.20
2022-10-18T01:03:50.440Z,10.00
2022-10-18T01:04:50.421Z,10.40
2022-10-18T01:05:50.388Z,8.20
2022-10-18T01:06:50.425Z,8.70
2022-10-18T01:07:50.347Z,12.30
2022-10-18T01:08:50.339Z,8.50
2022-10-18T01:09:50.337Z,9.30
2022-10-18T01:10:50.390Z,10.60
2022-10-18T01:11:50.328Z,10.20
2022-10-18T01:12:50.338Z,8.90
2022-10-18T01:13:50.299Z,10.30
2022-10-18T01:14:50.286Z,10.90
2022-10-18T01:15:50.310Z,9.40
2022-10-18T01:16:50.240Z,10.10
2022-10-18T01:17:50.262Z,9.20
2022-10-18T01:18:50.254Z,8.70
2022-10-18T01:19:50.245Z,9.60
2022-10-18T01:20:50.203Z,9.70
2022-10-18T01:21:50.214Z,10.10
2022-10-18T01:22:50.243Z,7.60
2022-10-18T01:23:50.185Z,12.50
2022-10-18T01:24:50.278Z,9.20
2022-10-18T01:25:50.171Z,9.10
2022-10-18T01:26:50.143Z,8.80
2022-10-18T01:27:50.136Z,7.50
2022-10-18T01:28:50.213Z,10.10
2022-10-18T01:29:50.122Z,7.60
2022-10-18T01:30:50.098Z,10.30
2022-10-18T01:31:50.094Z,9.00
2022-10-18T01:32:50.076Z,11.20
2022-10-18T01:33:50.111Z,9.00
2022-10-18T01:34:50.109Z,9.70
2022-10-18T01:35:50.038Z,9.90
2022-10-18T01:36:50.036Z,8.00
2022-10-18T01:37:50.040Z,9.20
2022-10-18T01:38:50.008Z,11.20
2022-10-18T01:39:50.040Z,7.80
2022-10-18T01:40:50.011Z,7.80
2022-10-18T01:41:49.957Z,7.40
2022-10-18T01:42:49.961Z,10.10
2022-10-18T01:43:49.959Z,9.20
2022-10-18T01:44:49.929Z,9.50
2022-10-18T01:45:49.951Z,9.50
2022-10-18T01:46:49.924Z,9.70
2022-10-18T01:47:49.926Z,8.80
2022-10-18T01:48:50.840Z,10.80
2022-10-18T01:49:50.810Z,13.10
2022-10-18T01:50:49.965Z,7.70
2022-10-18T01:51:49.896Z,8.10
2022-10-18T01:52:49.869Z,8.90
2022-10-18T01:53:49.854Z,9.20
2022-10-18T01:54:49.825Z,10.00
2022-10-18T01:55:49.842Z,8.80
2022-10-18T01:56:49.801Z,9.50
2022-10-18T01:57:49.816Z,10.40
2022-10-18T01:58:49.790Z,9.40
2022-10-18T01:59:49.781Z,10.70
2022-10-18T02:00:49.758Z,10.00
2022-10-18T02:01:49.793Z,9.90
2022-10-18T02:02:49.725Z,8.70
2022-10-18T02:03:49.714Z,13.30
2022-10-18T02:04:49.718Z,9.50
2022-10-18T02:05:49.684Z,9.90
2022-10-18T02:06:49.872Z,8.20
2022-10-18T02:07:55.443Z,8.80
2022-10-18T02:08:50.671Z,8.10
2022-10-18T02:09:49.655Z,7.10
2022-10-18T02:10:49.667Z,9.70
2022-10-18T02:11:49.641Z,10.30
2022-10-18T02:12:49.637Z,9.80
2022-10-18T02:13:49.623Z,12.30
2022-10-18T02:14:49.611Z,8.50
2022-10-18T02:15:49.602Z,9.60
2022-10-18T02:16:49.631Z,9.20
2022-10-18T02:17:49.562Z,9.80
2022-10-18T02:18:49.571Z,9.20
2022-10-18T02:19:49.529Z,7.20
2022-10-18T02:20:49.547Z,9.10
2022-10-18T02:21:49.560Z,10.10
2022-10-18T02:22:49.514Z,10.50
2022-10-18T02:23:49.526Z,8.80
2022-10-18T02:24:49.530Z,11.30
2022-10-18T02:25:49.484Z,8.80
2022-10-18T02:26:49.461Z,11.10
2022-10-18T02:27:49.475Z,10.00
2022-10-18T02:28:49.432Z,7.70
2022-10-18T02:29:49.425Z,9.10
2022-10-18T02:30:49.451Z,8.20
2022-10-18T02:31:49.459Z,9.20
2022-10-18T02:32:49.420Z,11.30
2022-10-18T02:33:49.364Z,11.30
2022-10-18T02:34:49.355Z,9.30
2022-10-18T02:35:49.421Z,8.20
2022-10-18T02:36:49.368Z,9.50
2022-10-18T02:37:49.347Z,9.20
2022-10-18T02:38:49.357Z,9.90
2022-10-18T02:39:49.308Z,8.20
2022-10-18T02:40:49.325Z,9.80
2022-10-18T02:41:49.318Z,10.00
2022-10-18T02:42:49.266Z,7.70
2022-10-18T02:43:49.276Z,11.10
2022-10-18T02:44:49.300Z,14.70
2022-10-18T02:45:49.258Z,9.10
2022-10-18T02:46:49.260Z,9.90
2022-10-18T02:47:49.268Z,9.40
2022-10-18T02:48:49.251Z,8.70
2022-10-18T02:49:49.199Z,9.10
2022-10-18T02:50:49.177Z,8.70
2022-10-18T02:51:49.217Z,8.40
2022-10-18T02:52:49.159Z,8.40
2022-10-18T02:53:49.191Z,8.90
2022-10-18T02:54:49.160Z,9.90
2022-10-18T02:55:49.136Z,9.00
2022-10-18T02:56:49.161Z,7.70
2022-10-18T02:57:49.101Z,9.10
2022-10-18T02:58:49.125Z,8.80
2022-10-18T02:59:49.144Z,11.40
2022-10-18T03:00:49.061Z,8.40
2022-10-18T03:01:49.132Z,9.80
2022-10-18T03:02:49.067Z,8.20
2022-10-18T03:03:49.046Z,14.80
2022-10-18T03:04:49.109Z,9.20
2022-10-18T03:05:49.066Z,10.50
2022-10-18T03:06:49.038Z,7.20
2022-10-18T03:07:49.007Z,7.00
2022-10-18T03:08:49.017Z,8.10
2022-10-18T03:09:48.984Z,8.80
2022-10-18T03:10:48.968Z,6.60
2022-10-18T03:11:48.998Z,9.60
2022-10-18T03:12:48.948Z,7.90
2022-10-18T03:13:48.926Z,9.50
2022-10-18T03:14:48.929Z,8.10
2022-10-18T03:15:48.916Z,10.70
2022-10-18T03:16:48.925Z,10.80
2022-10-18T03:17:48.908Z,8.70
2022-10-18T03:18:48.857Z,8.40
2022-10-18T03:19:48.891Z,10.10
2022-10-18T03:20:48.847Z,8.00
2022-10-18T03:21:48.839Z,8.30
2022-10-18T03:22:48.873Z,9.50
2022-10-18T03:23:48.837Z,7.40
2022-10-18T03:24:48.847Z,9.60
2022-10-18T03:25:48.779Z,9.20
2022-10-18T03:26:48.793Z,7.30
2022-10-18T03:27:48.771Z,8.10
2022-10-18T03:28:48.871Z,8.50
2022-10-18T03:29:48.761Z,8.70
2022-10-18T03:30:48.744Z,7.80
2022-10-18T03:31:48.725Z,8.80
2022-10-18T03:32:48.725Z,10.70
2022-10-18T03:33:48.735Z,7.70
2022-10-18T03:34:48.713Z,11.10
2022-10-18T03:35:48.693Z,10.20
2022-10-18T03:36:48.682Z,7.70
2022-10-18T03:37:48.668Z,9.90
2022-10-18T03:38:48.671Z,10.90
2022-10-18T03:39:48.708Z,11.70
2022-10-18T03:40:48.634Z,8.20
2022-10-18T03:41:48.615Z,9.30
2022-10-18T03:42:48.585Z,9.30
2022-10-18T03:43:48.628Z,8.80
2022-10-18T03:44:48.595Z,9.20
2022-10-18T03:45:48.555Z,10.40
2022-10-18T03:46:48.545Z,9.80
2022-10-18T03:47:48.555Z,9.40
2022-10-18T03:48:48.566Z,7.30
2022-10-18T03:49:50.937Z,9.70
2022-10-18T03:50:48.507Z,9.10
2022-10-18T03:51:48.508Z,8.00
2022-10-18T03:52:48.518Z,11.30
2022-10-18T03:53:48.491Z,8.40
2022-10-18T03:54:48.473Z,9.20
2022-10-18T03:55:48.512Z,9.20
2022-10-18T03:56:48.428Z,7.20
2022-10-18T03:57:48.461Z,10.00
2022-10-18T03:58:48.428Z,8.00
2022-10-18T03:59:48.435Z,9.50
2022-10-18T04:00:48.410Z,9.50
2022-10-18T04:01:48.413Z,9.10
2022-10-18T04:02:51.944Z,10.70
2022-10-18T04:03:49.362Z,7.30
2022-10-18T04:04:48.341Z,8.80
2022-10-18T04:05:48.354Z,9.20
2022-10-18T04:06:48.322Z,13.80
2022-10-18T04:07:48.326Z,6.90
2022-10-18T04:08:48.355Z,8.80
2022-10-18T04:09:48.296Z,8.90
2022-10-18T04:10:48.303Z,9.40
2022-10-18T04:11:48.273Z,7.90
2022-10-18T04:12:48.272Z,7.50
2022-10-18T04:13:48.245Z,8.90
2022-10-18T04:14:48.254Z,8.60
2022-10-18T04:15:48.215Z,7.50
2022-10-18T04:16:48.248Z,10.60
2022-10-18T04:17:48.218Z,9.70
2022-10-18T04:18:48.209Z,9.70
2022-10-18T04:19:48.166Z,7.80
2022-10-18T04:20:48.197Z,8.00
2022-10-18T04:21:48.186Z,7.70
2022-10-18T04:22:48.239Z,8.10
2022-10-18T04:23:48.127Z,8.40
2022-10-18T04:24:48.131Z,7.40
2022-10-18T04:25:48.122Z,10.30
2022-10-18T04:26:48.098Z,7.00
2022-10-18T04:27:48.099Z,10.00
2022-10-18T04:28:48.155Z,9.90
2022-10-18T04:29:48.082Z,7.90
2022-10-18T04:30:48.049Z,10.80
2022-10-18T04:31:48.083Z,10.90
2022-10-18T04:32:48.033Z,7.90
2022-10-18T04:33:48.110Z,8.30
2022-10-18T04:34:48.027Z,7.40
2022-10-18T04:35:48.002Z,10.30
2022-10-18T04:36:48.027Z,10.40
2022-10-18T04:37:47.980Z,8.10
2022-10-18T04:38:47.951Z,9.00
2022-10-18T04:39:51.154Z,6.90
2022-10-18T04:40:48.934Z,9.90
2022-10-18T04:41:47.962Z,7.90
2022-10-18T04:42:47.945Z,10.70
2022-10-18T04:43:47.925Z,7.40
2022-10-18T04:44:47.896Z,6.80
2022-10-18T04:45:47.903Z,10.10
2022-10-18T04:46:47.887Z,7.60
2022-10-18T04:47:47.894Z,9.00
2022-10-18T04:48:47.878Z,9.90
2022-10-18T04:49:47.855Z,9.90
2022-10-18T04:50:47.868Z,8.20
2022-10-18T04:51:47.820Z,9.00
2022-10-18T04:52:47.795Z,8.00
2022-10-18T04:53:47.855Z,10.80
2022-10-18T04:54:47.809Z,8.60
2022-10-18T04:55:47.782Z,10.90
2022-10-18T04:56:47.782Z,8.30
2022-10-18T04:57:47.738Z,9.00
2022-10-18T04:58:47.792Z,10.00
2022-10-18T04:59:47.741Z,9.40
2022-10-18T05:00:47.737Z,8.40
2022-10-18T05:01:47.758Z,9.50
2022-10-18T05:02:47.693Z,9.00
2022-10-18T05:03:47.742Z,9.40
2022-10-18T05:04:47.685Z,9.70
2022-10-18T05:06:01.339Z,9.00
2022-10-18T05:06:48.650Z,8.10
2022-10-18T05:07:47.644Z,8.60
2022-10-18T05:08:47.631Z,8.00
2022-10-18T05:09:47.662Z,9.70
2022-10-18T05:10:47.614Z,8.40
2022-10-18T05:11:47.602Z,9.30
2022-10-18T05:12:47.595Z,8.50
2022-10-18T05:13:50.108Z,9.70
2022-10-18T05:14:47.583Z,10.10
2022-10-18T05:15:47.569Z,9.70
2022-10-18T05:16:47.554Z,9.70
2022-10-18T05:17:47.529Z,9.50
2022-10-18T05:18:47.517Z,9.50
2022-10-18T05:19:47.586Z,10.50
2022-10-18T05:20:47.504Z,9.20
2022-10-18T05:21:47.487Z,10.30
2022-10-18T05:22:47.455Z,10.20
2022-10-18T05:23:47.500Z,8.60
2022-10-18T05:24:47.510Z,9.20
2022-10-18T05:25:47.462Z,8.70
2022-10-18T05:26:47.430Z,11.80
2022-10-18T05:27:47.430Z,8.10
2022-10-18T05:28:47.439Z,10.80
2022-10-18T05:29:47.417Z,7.40
2022-10-18T05:30:47.391Z,8.50
2022-10-18T05:31:47.359Z,10.10
2022-10-18T05:32:47.391Z,10.70
2022-10-18T05:33:47.361Z,9.40
2022-10-18T05:34:47.439Z,10.30
2022-10-18T05:35:47.379Z,11.10
2022-10-18T05:36:47.311Z,11.10
2022-10-18T05:37:47.303Z,15.50
2022-10-18T05:38:47.293Z,10.60
2022-10-18T05:39:47.279Z,12.50
2022-10-18T05:40:47.312Z,9.70
2022-10-18T05:41:47.244Z,11.90
2022-10-18T05:42:47.234Z,9.40
2022-10-18T05:43:47.308Z,11.30
2022-10-18T05:44:47.220Z,10.80
2022-10-18T05:45:47.252Z,11.00
2022-10-18T05:46:47.223Z,8.50
2022-10-18T12:19:02.236Z,4.40
2022-10-18T12:19:53.155Z,4.10
2022-10-18T12:20:45.616Z,3.90
2022-10-18T12:21:45.607Z,4.50
2022-10-18T12:22:45.618Z,4.80
2022-10-18T12:23:45.583Z,5.50
2022-10-18T12:24:45.616Z,4.90
2022-10-18T12:25:45.543Z,4.70
2022-10-18T12:26:45.552Z,5.50
2022-10-18T12:27:45.583Z,5.00
2022-10-18T12:28:45.547Z,4.90
2022-10-18T12:29:48.018Z,6.80
2022-10-18T12:30:45.507Z,5.50
2022-10-18T12:31:45.475Z,6.40
2022-10-18T12:33:02.078Z,6.60
2022-10-18T12:33:46.514Z,6.00
2022-10-18T12:34:45.448Z,5.40
2022-10-18T12:35:45.480Z,5.10
2022-10-18T12:36:45.425Z,4.60
2022-10-18T12:37:45.486Z,4.30
2022-10-18T12:38:45.398Z,4.40
2022-10-18T12:40:08.568Z,3.80
2022-10-18T12:40:46.411Z,5.40
2022-10-18T12:41:45.421Z,4.00
2022-10-18T12:42:45.422Z,4.40
2022-10-18T12:43:45.362Z,4.10
2022-10-18T12:44:45.354Z,5.20
2022-10-18T12:45:45.319Z,3.60
2022-10-18T12:46:45.344Z,4.40
2022-10-18T12:47:45.299Z,4.10
2022-10-18T12:48:45.337Z,3.80
2022-10-18T12:49:45.349Z,3.40
2022-10-18T12:50:45.297Z,3.20
2022-10-18T12:51:45.260Z,4.90
2022-10-18T12:52:45.241Z,3.70
2022-10-18T12:53:45.273Z,2.90
2022-10-18T12:54:45.244Z,3.10
2022-10-18T12:55:45.254Z,2.30
2022-10-18T12:56:45.193Z,3.40
2022-10-18T12:57:45.196Z,2.70
2022-10-18T12:58:45.173Z,3.00
2022-10-18T12:59:45.215Z,3.00
2022-10-18T13:00:45.170Z,2.80
2022-10-18T13:01:45.182Z,2.80
2022-10-18T13:02:45.133Z,3.90
2022-10-18T13:03:45.105Z,3.20
2022-10-18T13:04:45.095Z,3.10
2022-10-18T13:05:52.815Z,3.20
2022-10-18T13:06:46.075Z,3.80
2022-10-18T13:07:45.065Z,3.40
2022-10-18T13:08:45.095Z,3.30
2022-10-18T13:09:45.048Z,3.00
2022-10-18T13:10:45.035Z,4.00
2022-10-18T13:11:45.045Z,3.10
2022-10-18T13:12:45.036Z,3.70
2022-10-18T13:13:44.997Z,3.20
2022-10-18T13:14:54.484Z,3.40
2022-10-18T13:15:45.979Z,3.30
2022-10-18T13:16:44.978Z,3.00
2022-10-18T13:17:44.969Z,2.30
2022-10-18T13:18:45.077Z,2.30
2022-10-18T13:19:44.951Z,3.70
2022-10-18T13:20:44.935Z,3.40
2022-10-18T13:21:44.932Z,2.70
2022-10-18T13:22:44.898Z,3.50
2022-10-18T13:23:44.890Z,2.00
2022-10-18T13:24:44.882Z,2.60
2022-10-18T13:25:44.861Z,2.00
2022-10-18T13:26:44.866Z,2.50
2022-10-18T13:27:45.264Z,2.50
2022-10-18T13:28:44.916Z,1.50
2022-10-18T13:29:44.817Z,1.60
2022-10-18T13:30:44.807Z,2.10
2022-10-18T13:31:44.804Z,2.50
2022-10-18T13:32:44.804Z,2.00
2022-10-18T13:33:44.784Z,1.30
2022-10-18T13:34:44.754Z,1.10
2022-10-18T13:35:44.755Z,1.00
2022-10-18T13:36:44.748Z,1.50
2022-10-18T13:37:44.746Z,1.10
2022-10-18T13:38:44.776Z,1.30
2022-10-18T13:39:44.706Z,1.30
2022-10-18T13:40:44.689Z,1.00
2022-10-18T13:41:44.712Z,1.50
2022-10-18T13:42:44.656Z,0.70
2022-10-18T13:43:47.820Z,1.50
2022-10-18T13:44:44.762Z,1.20
2022-10-18T13:45:44.661Z,1.00
2022-10-18T13:46:44.618Z,1.40
2022-10-18T13:47:44.624Z,1.80
2022-10-18T13:48:44.608Z,1.50
2022-10-18T13:49:44.599Z,1.50
2022-10-18T13:50:44.611Z,1.30
2022-10-18T13:51:44.563Z,1.40
2022-10-18T13:52:44.583Z,1.60
2022-10-18T13:53:44.582Z,2.90
2022-10-18T13:54:44.520Z,1.70
2022-10-18T13:55:44.649Z,3.80
2022-10-18T13:56:44.514Z,2.10
2022-10-18T13:57:44.514Z,3.20
2022-10-18T13:58:49.176Z,2.30
2022-10-18T13:59:45.485Z,1.70
2022-10-18T14:00:48.816Z,1.40
2022-10-18T14:01:47.461Z,1.50
2022-10-18T14:02:59.651Z,2.30
2022-10-18T14:03:56.786Z,0.80
2022-10-18T14:04:45.417Z,1.60
2022-10-18T14:05:44.419Z,1.30
2022-10-18T14:06:44.406Z,1.10
2022-10-18T14:07:44.407Z,1.40
2022-10-18T14:08:44.423Z,2.00
2022-10-18T14:09:45.266Z,2.00
2022-10-18T14:11:01.486Z,1.40
2022-10-18T14:11:46.292Z,1.30
2022-10-18T14:12:44.371Z,1.00
2022-10-18T14:13:44.351Z,0.90
2022-10-18T14:14:44.309Z,1.90
2022-10-18T14:15:44.287Z,0.80
2022-10-18T14:16:44.266Z,0.90
2022-10-18T14:17:44.272Z,2.10
2022-10-18T14:18:44.290Z,1.50
2022-10-18T14:19:44.257Z,2.70
2022-10-18T14:21:01.424Z,1.60
2022-10-18T14:21:45.244Z,0.90
2022-10-18T14:22:44.228Z,0.80
2022-10-18T14:23:44.190Z,2.50
2022-10-18T14:24:44.181Z,2.50
2022-10-18T14:25:44.195Z,1.10
2022-10-18T14:26:44.208Z,1.40
2022-10-18T14:27:44.163Z,1.60
2022-10-18T14:29:00.599Z,2.00
2022-10-18T14:29:45.171Z,1.10
2022-10-18T14:30:44.103Z,2.00
2022-10-18T14:31:44.175Z,1.50
2022-10-18T14:32:44.124Z,1.40
2022-10-18T14:33:44.063Z,2.60
2022-10-18T14:34:44.075Z,1.60
2022-10-18T14:35:44.103Z,1.80
2022-10-18T14:36:44.078Z,1.80
2022-10-18T14:37:44.071Z,2.80
2022-10-18T14:38:44.059Z,2.00
2022-10-18T14:39:43.996Z,2.40
2022-10-18T14:40:44.026Z,2.20
2022-10-18T14:41:43.985Z,2.50
2022-10-18T14:42:43.966Z,2.00
2022-10-18T14:43:43.994Z,1.50
2022-10-18T14:44:43.942Z,3.60
2022-10-18T14:45:43.929Z,1.90
2022-10-18T14:46:43.952Z,3.10
2022-10-18T14:47:43.966Z,1.80
2022-10-18T14:48:43.931Z,2.50
2022-10-18T14:49:43.902Z,4.40
2022-10-18T14:50:43.888Z,2.50
2022-10-18T14:51:43.893Z,2.30
2022-10-18T14:52:43.863Z,1.60
2022-10-18T14:53:43.880Z,1.50
2022-10-18T14:54:43.839Z,2.40
2022-10-18T14:55:43.854Z,2.50
2022-10-18T14:56:43.855Z,1.60
2022-10-18T14:57:43.834Z,2.00
2022-10-18T14:58:43.813Z,1.80
2022-10-18T14:59:43.763Z,2.50
2022-10-18T15:00:46.322Z,1.80
2022-10-18T15:01:43.795Z,3.60
2022-10-18T15:02:43.782Z,2.90
2022-10-18T15:03:43.743Z,2.80
2022-10-18T15:04:43.747Z,3.10
2022-10-18T15:05:43.707Z,3.50
2022-10-18T15:06:43.715Z,5.90
2022-10-18T15:07:43.698Z,2.80
2022-10-18T15:08:43.722Z,2.90
2022-10-18T15:09:43.668Z,2.80
2022-10-18T15:10:43.679Z,3.80
2022-10-18T15:11:43.676Z,3.60
2022-10-18T15:13:08.195Z,3.60
2022-10-18T15:13:44.649Z,3.80
2022-10-18T15:14:43.599Z,3.10
2022-10-18T15:15:43.622Z,3.00
2022-10-18T15:16:43.600Z,3.00
2022-10-18T15:17:43.568Z,2.80
2022-10-18T15:18:43.570Z,2.30
2022-10-18T15:19:43.558Z,2.00
2022-10-18T15:20:43.533Z,2.40
2022-10-18T15:21:43.552Z,2.40
2022-10-18T15:22:43.613Z,2.70
2022-10-18T15:23:43.528Z,2.80
2022-10-18T15:24:43.512Z,2.00
2022-10-18T15:25:43.491Z,2.70
2022-10-18T15:26:43.483Z,2.60
2022-10-18T15:27:43.520Z,2.40
2022-10-18T15:28:43.511Z,2.50
2022-10-18T15:29:43.452Z,2.70
2022-10-18T15:30:43.423Z,3.40
2022-10-18T15:31:43.416Z,3.90
2022-10-18T15:32:43.403Z,2.50
2022-10-18T15:33:43.436Z,2.50
2022-10-18T15:34:43.376Z,2.40
2022-10-18T15:35:43.368Z,2.20
2022-10-18T15:37:43.387Z,2.40
2022-10-18T15:38:46.298Z,2.30
2022-10-18T15:39:44.365Z,3.70
2022-10-18T15:40:43.326Z,3.20
2022-10-18T15:41:43.297Z,3.90
2022-10-18T15:42:43.286Z,3.70
2022-10-18T15:43:43.308Z,3.30
2022-10-18T15:44:43.271Z,3.70
2022-10-18T15:45:43.272Z,3.50
2022-10-18T15:46:43.257Z,3.70
2022-10-18T15:47:43.239Z,4.50
2022-10-18T15:48:43.442Z,3.90
2022-10-18T15:49:43.232Z,3.40
2022-10-18T15:50:43.189Z,7.20
2022-10-18T15:51:43.182Z,4.10
2022-10-18T15:52:43.194Z,3.90
2022-10-18T15:53:43.199Z,5.20
2022-10-18T15:54:43.199Z,4.00
2022-10-18T15:55:43.134Z,4.70
2022-10-18T15:56:43.111Z,4.40
2022-10-18T15:57:43.121Z,4.10
2022-10-18T15:58:43.086Z,5.30
2022-10-18T15:59:43.125Z,4.30
2022-10-18T16:00:43.108Z,3.70
2022-10-18T16:01:43.089Z,5.70
2022-10-18T16:02:43.067Z,4.00
2022-10-18T16:03:43.116Z,6.20
2022-10-18T16:04:43.064Z,4.20
2022-10-18T16:05:43.047Z,4.60
2022-10-18T16:06:43.017Z,5.20
2022-10-18T16:07:42.985Z,4.20
2022-10-18T16:08:42.974Z,4.80
2022-10-18T16:09:43.000Z,4.00
2022-10-18T16:10:42.988Z,4.50
2022-10-18T16:11:42.959Z,3.90
2022-10-18T16:12:42.986Z,5.50
2022-10-18T16:13:42.939Z,4.90
2022-10-18T16:14:42.949Z,6.00
2022-10-18T16:15:42.904Z,6.90
2022-10-18T16:16:42.910Z,7.80
2022-10-18T16:17:42.925Z,11.20
2022-10-18T16:18:42.871Z,10.60
2022-10-18T16:19:42.932Z,12.30
2022-10-18T16:20:42.853Z,10.20
2022-10-18T16:21:42.832Z,8.60
2022-10-18T16:22:43.197Z,9.00
2022-10-18T16:23:42.829Z,10.60
2022-10-18T16:24:42.834Z,8.00
2022-10-18T16:25:42.795Z,7.70
2022-10-18T16:26:42.777Z,7.20
2022-10-18T16:27:42.752Z,6.90
2022-10-18T16:28:42.873Z,6.70
2022-10-18T16:29:42.765Z,8.90
2022-10-18T16:30:42.728Z,6.00
2022-10-18T16:31:42.714Z,6.10
2022-10-18T16:32:42.701Z,9.70
2022-10-18T16:33:42.811Z,6.60
2022-10-18T16:34:42.706Z,8.40
2022-10-18T16:35:42.707Z,7.20
2022-10-18T16:36:42.706Z,7.00
2022-10-18T16:37:42.643Z,5.80
2022-10-18T16:38:42.625Z,6.30
2022-10-18T16:39:42.658Z,5.90
2022-10-18T16:40:42.625Z,6.70
2022-10-18T16:41:42.628Z,8.10
2022-10-18T16:42:42.632Z,9.40
2022-10-18T16:43:42.576Z,8.50
2022-10-18T16:44:42.573Z,9.90
2022-10-18T16:45:42.587Z,8.10
2022-10-18T16:46:42.545Z,8.00
2022-10-18T16:47:42.566Z,9.40
2022-10-18T16:48:42.538Z,9.00
2022-10-18T16:49:42.497Z,9.10
2022-10-18T16:50:42.501Z,10.00
2022-10-18T16:51:42.489Z,11.10
2022-10-18T16:52:42.531Z,7.00
2022-10-18T16:53:42.460Z,12.10
2022-10-18T16:54:42.453Z,7.30
2022-10-18T16:55:42.430Z,8.60
2022-10-18T16:56:42.425Z,8.50
2022-10-18T16:57:42.465Z,7.30
2022-10-18T16:58:42.431Z,9.10
2022-10-18T16:59:42.413Z,7.80
2022-10-18T17:00:42.389Z,5.90
2022-10-18T17:01:42.419Z,6.10
2022-10-18T17:02:42.368Z,7.80
2022-10-18T17:03:42.364Z,6.40
2022-10-18T17:04:42.365Z,7.70
2022-10-18T17:05:42.334Z,10.80
2022-10-18T17:06:42.317Z,10.40
2022-10-18T17:07:42.294Z,9.70
2022-10-18T17:08:42.316Z,10.00
2022-10-18T17:09:42.330Z,9.30
2022-10-18T17:10:42.268Z,10.80
2022-10-18T17:11:42.235Z,11.70
2022-10-18T17:12:42.267Z,11.10
2022-10-18T17:13:42.238Z,11.10
2022-10-18T17:14:42.234Z,19.20
2022-10-18T17:15:42.241Z,13.30
2022-10-18T17:16:43.573Z,11.10
2022-10-18T17:17:42.209Z,9.60
2022-10-18T17:18:42.208Z,9.10
2022-10-18T17:19:42.181Z,8.30
2022-10-18T17:20:42.149Z,8.50
2022-10-18T17:21:42.163Z,11.20
2022-10-18T17:22:42.142Z,9.20
2022-10-18T17:23:42.141Z,10.10
2022-10-18T17:24:42.148Z,9.50
2022-10-18T17:25:51.605Z,7.90
2022-10-18T17:26:43.123Z,8.90
2022-10-18T17:27:42.070Z,8.90
2022-10-18T17:28:42.152Z,12.40
2022-10-18T17:29:42.060Z,9.30
2022-10-18T17:30:42.071Z,12.90
2022-10-18T17:31:42.011Z,11.00
2022-10-18T17:32:42.034Z,9.90
2022-10-18T17:33:41.991Z,11.90
2022-10-18T17:35:41.993Z,12.70
2022-10-18T17:36:41.972Z,15.20
2022-10-18T17:37:45.311Z,16.10
2022-10-18T17:38:41.953Z,15.80
2022-10-18T17:39:41.957Z,15.20
2022-10-18T17:40:41.953Z,17.00
2022-10-18T17:41:41.907Z,10.70
2022-10-18T17:42:41.918Z,9.90
2022-10-18T17:43:41.891Z,9.30
2022-10-18T17:44:41.899Z,10.40
2022-10-18T17:45:41.907Z,10.90
2022-10-18T17:46:41.856Z,7.90
2022-10-18T17:47:41.909Z,8.80
2022-10-18T17:48:41.842Z,10.60
2022-10-18T17:49:41.911Z,8.80
2022-10-18T17:50:41.826Z,9.70
2022-10-18T17:51:41.969Z,10.10
2022-10-18T17:53:41.775Z,10.10
2022-10-18T17:54:41.768Z,9.90
2022-10-18T17:55:41.772Z,11.20
2022-10-18T17:56:41.732Z,10.00
2022-10-18T17:57:41.743Z,10.60
2022-10-18T17:58:41.753Z,11.90
2022-10-18T17:59:41.704Z,9.90
2022-10-18T18:00:41.698Z,12.00
2022-10-18T18:01:41.677Z,12.20
2022-10-18T18:02:42.135Z,10.70
2022-10-18T18:03:41.642Z,9.60
2022-10-18T18:04:41.682Z,9.50
2022-10-18T18:05:41.621Z,15.90
2022-10-18T18:06:41.636Z,17.40
2022-10-18T18:07:41.612Z,14.30
2022-10-18T18:08:41.584Z,13.30
2022-10-18T18:09:41.596Z,21.00
2022-10-18T18:10:41.619Z,22.30
2022-10-18T18:11:41.590Z,18.10
2022-10-18T18:12:41.587Z,19.70
2022-10-18T18:13:41.570Z,16.80
2022-10-18T18:14:41.574Z,16.30
2022-10-18T18:15:41.529Z,15.20
2022-10-18T18:16:41.512Z,16.40
2022-10-18T18:17:57.837Z,14.50
2022-10-18T18:18:42.476Z,13.10
2022-10-18T18:19:41.562Z,15.80
2022-10-18T18:20:41.467Z,26.50
2022-10-18T18:21:41.436Z,29.20
2022-10-18T18:22:42.585Z,25.50
2022-10-18T18:23:41.418Z,35.20
2022-10-18T18:24:41.436Z,35.50
2022-10-18T18:25:41.426Z,23.90
2022-10-18T18:26:41.401Z,27.50
2022-10-18T18:27:41.368Z,29.90
2022-10-18T18:28:41.583Z,24.50
2022-10-18T18:29:41.347Z,19.60
2022-10-18T18:30:41.331Z,19.00
2022-10-18T18:31:43.431Z,18.90
2022-10-18T18:32:41.318Z,19.30
2022-10-18T18:33:41.332Z,20.00
2022-10-18T18:34:41.292Z,24.50
2022-10-18T18:35:41.304Z,25.20
2022-10-18T18:36:41.251Z,26.40
2022-10-18T18:37:41.295Z,26.00
2022-10-18T18:38:41.242Z,25.80
2022-10-18T18:39:41.225Z,23.80
2022-10-18T18:40:41.212Z,24.10
2022-10-18T18:41:41.212Z,22.40
2022-10-18T18:42:41.215Z,23.10
2022-10-18T18:43:41.227Z,20.80
2022-10-18T18:44:41.187Z,20.10
2022-10-18T18:45:41.164Z,26.70
2022-10-18T18:46:41.154Z,18.90
2022-10-18T18:47:41.288Z,19.80
2022-10-18T18:48:41.193Z,18.40
2022-10-18T18:49:41.118Z,15.30
2022-10-18T18:50:41.125Z,17.10
2022-10-18T18:51:41.089Z,14.00
2022-10-18T18:52:41.118Z,16.20
2022-10-18T18:53:41.071Z,17.90
2022-10-18T18:54:41.086Z,18.90
2022-10-18T18:55:41.037Z,26.20
2022-10-18T18:56:41.050Z,24.40
2022-10-18T18:57:41.137Z,19.70
2022-10-18T18:58:41.021Z,19.90
2022-10-18T18:59:41.027Z,16.70
2022-10-18T19:00:43.541Z,17.50
2022-10-18T19:01:41.099Z,16.00
2022-10-18T19:02:40.979Z,15.40
2022-10-18T19:03:40.962Z,16.40
2022-10-18T19:04:40.953Z,17.80
2022-10-18T19:05:40.931Z,17.70
2022-10-18T19:06:40.935Z,17.60
2022-10-18T19:07:40.986Z,13.80
2022-10-18T19:08:40.905Z,15.90
2022-10-18T19:09:40.886Z,16.90
2022-10-18T19:10:40.883Z,15.60
2022-10-18T19:11:40.892Z,16.90
2022-10-18T19:12:40.881Z,17.60
2022-10-18T19:13:40.846Z,16.20
2022-10-18T19:14:40.927Z,16.80
2022-10-18T19:15:40.847Z,16.10
2022-10-18T19:16:40.836Z,16.60
2022-10-18T19:17:40.901Z,15.60
2022-10-18T19:18:40.774Z,20.80
2022-10-18T19:19:40.786Z,25.20
2022-10-18T19:20:40.759Z,24.00
2022-10-18T19:21:40.808Z,24.30
2022-10-18T19:22:40.748Z,22.10
2022-10-18T19:23:40.736Z,21.30
2022-10-18T19:24:40.736Z,19.80
2022-10-18T19:25:40.686Z,22.70
2022-10-18T19:26:40.711Z,23.30
2022-10-18T19:27:40.718Z,26.00
2022-10-18T19:28:40.683Z,26.70
2022-10-18T19:29:40.649Z,27.90
2022-10-18T19:30:40.681Z,27.20
2022-10-18T19:31:40.609Z,28.10
2022-10-18T19:32:40.598Z,27.90
2022-10-18T19:33:48.394Z,25.40
2022-10-18T19:34:41.586Z,25.10
2022-10-18T19:35:40.594Z,16.90
2022-10-18T19:36:40.569Z,14.50
2022-10-18T19:37:40.560Z,18.20
2022-10-18T19:38:40.565Z,19.50
2022-10-18T19:39:40.561Z,17.70
2022-10-18T19:40:40.521Z,15.00
2022-10-18T19:41:40.514Z,17.30
2022-10-18T19:42:40.526Z,24.20
2022-10-18T19:43:40.482Z,22.80
2022-10-18T19:44:40.512Z,32.30
2022-10-18T19:45:40.515Z,42.60
2022-10-18T19:46:40.443Z,66.20